Time;durP1;ratioP1;P1;durP2;ratioP2;P2;SDS_P1;SDS_P2;PMS_P1;PMS_P2;Temp;Humidity;BMP_temperature;BMP_pressure;BME280_temperature;BME280_humidity;BME280_pressure;Samples;Min_cycle;Max_cycle;Signal;HPM_P1;HPM_P2
2022/09/10 00:01:18;;;;;;;4.10;3.28;;;;;;;-140.66;100.00;55571.53;5053594;28;20028;-73
2022/09/10 00:04:09;;;;;;;4.00;3.60;;;;;;;-140.66;100.00;55571.53;5039618;28;20025;-72
2022/09/10 00:06:55;;;;;;;5.45;3.70;;;;;;;-140.66;100.00;55571.53;5054110;28;20477;-73
2022/09/10 00:09:41;;;;;;;4.45;3.78;;;;;;;-140.66;100.00;55571.53;5053571;28;20397;-72
2022/09/10 00:12:26;;;;;;;6.03;3.53;;;;;;;-140.66;100.00;55571.53;5054276;28;20103;-73
2022/09/10 00:15:14;;;;;;;4.78;3.33;;;;;;;-140.66;100.00;55571.53;5053943;28;20027;-73
2022/09/10 00:18:00;;;;;;;7.28;3.63;;;;;;;-140.66;100.00;55571.53;5039589;28;20029;-73
2022/09/10 00:20:51;;;;;;;5.40;3.38;;;;;;;-140.66;100.00;55571.53;5053294;28;20084;-73
2022/09/10 00:23:38;;;;;;;4.47;3.40;;;;;;;-140.66;100.00;55571.53;5039695;28;20040;-73
2022/09/10 00:26:30;;;;;;;3.78;3.42;;;;;;;-140.66;100.00;55571.53;5054181;28;20075;-73
2022/09/10 00:29:16;;;;;;;3.85;3.30;;;;;;;-140.66;100.00;55571.53;5053543;28;20108;-73
2022/09/10 00:32:03;;;;;;;4.00;3.25;;;;;;;-140.66;100.00;55571.53;5040022;28;20037;-73
2022/09/10 00:34:49;;;;;;;6.57;3.10;;;;;;;-140.66;100.00;55571.53;5039251;28;20025;-73
2022/09/10 00:37:34;;;;;;;3.47;2.95;;;;;;;-140.66;100.00;55571.53;5053197;28;20049;-73
2022/09/10 00:40:20;;;;;;;4.97;3.25;;;;;;;-140.66;100.00;55571.53;5054840;28;20078;-73
2022/09/10 00:43:19;;;;;;;7.55;3.50;;;;;;;-140.66;100.00;55571.53;5053422;28;20044;-73
2022/09/10 00:46:04;;;;;;;4.22;3.10;;;;;;;-140.66;100.00;55571.53;5053239;28;20475;-72
2022/09/10 00:48:51;;;;;;;5.00;3.53;;;;;;;-140.66;100.00;55571.53;5039858;28;20107;-73
2022/09/10 00:51:39;;;;;;;3.83;2.97;;;;;;;-140.66;100.00;55571.53;5026923;28;20029;-73
2022/09/10 00:54:28;;;;;;;4.75;3.00;;;;;;;-140.66;100.00;55571.53;5054579;28;20040;-72
2022/09/10 00:57:19;;;;;;;4.60;2.80;;;;;;;-140.66;100.00;55571.53;5042981;28;20414;-72
2022/09/10 01:00:09;;;;;;;6.70;2.92;;;;;;;-140.66;100.00;55571.53;5043391;28;20081;-72
2022/09/10 01:02:54;;;;;;;3.58;3.00;;;;;;;-140.66;100.00;55571.53;5043459;28;20024;-73
2022/09/10 01:05:44;;;;;;;4.28;3.30;;;;;;;-140.66;100.00;55571.53;5056633;28;20033;-72
2022/09/10 01:08:30;;;;;;;7.05;3.00;;;;;;;-140.66;100.00;55571.53;5057337;28;20105;-73
2022/09/10 01:11:44;;;;;;;4.38;3.08;;;;;;;-140.66;100.00;55571.53;5056769;28;20025;-73
2022/09/10 01:14:51;;;;;;;4.03;3.47;;;;;;;-140.66;100.00;55571.53;5056810;28;20111;-73
2022/09/10 01:17:56;;;;;;;3.83;2.90;;;;;;;-140.66;100.00;55571.53;5056575;28;20029;-73
2022/09/10 01:21:06;;;;;;;5.85;3.38;;;;;;;-140.66;100.00;55571.53;5056607;28;20044;-73
2022/09/10 01:24:03;;;;;;;7.10;3.03;;;;;;;-140.66;100.00;55571.53;5056979;28;20450;-73
2022/09/10 01:26:55;;;;;;;3.95;3.00;;;;;;;-140.66;100.00;55571.53;5056961;28;20369;-73
2022/09/10 01:29:52;;;;;;;3.20;2.90;;;;;;;-140.66;100.00;55571.53;5057583;28;20047;-72
2022/09/10 01:32:43;;;;;;;3.63;2.90;;;;;;;-140.66;100.00;55571.53;5056476;28;20041;-72
2022/09/10 01:35:38;;;;;;;5.10;3.20;;;;;;;-140.66;100.00;55571.53;5042376;28;20117;-72
2022/09/10 01:38:31;;;;;;;3.80;2.97;;;;;;;-140.66;100.00;55571.53;5056481;28;20425;-72
2022/09/10 01:41:21;;;;;;;4.47;3.00;;;;;;;-140.66;100.00;55571.53;5056710;28;20416;-72
2022/09/10 01:44:09;;;;;;;4.05;3.10;;;;;;;-140.66;100.00;55571.53;5057077;28;20044;-73
2022/09/10 01:47:11;;;;;;;4.30;3.40;;;;;;;-140.66;100.00;55571.53;5056668;28;20020;-72
2022/09/10 01:50:09;;;;;;;4.32;3.35;;;;;;;-140.66;100.00;55571.53;5056603;28;20021;-72
2022/09/10 01:52:57;;;;;;;3.42;3.13;;;;;;;-140.66;100.00;55571.53;5042849;28;20060;-72
2022/09/10 01:56:10;;;;;;;5.50;3.50;;;;;;;-140.66;100.00;55571.53;5042551;28;20099;-73
2022/09/10 01:59:02;;;;;;;3.63;3.10;;;;;;;-140.66;100.00;55571.53;5055882;28;20415;-72
2022/09/10 02:01:56;;;;;;;3.50;3.03;;;;;;;-140.66;100.00;55571.53;5056199;28;20094;-72
2022/09/10 02:04:44;;;;;;;4.20;3.10;;;;;;;-140.66;100.00;55571.53;5057902;28;20057;-73
2022/09/10 02:07:33;;;;;;;3.78;3.20;;;;;;;-140.66;100.00;55571.53;5041322;28;20349;-72
2022/09/10 02:10:19;;;;;;;3.97;3.08;;;;;;;-140.66;100.00;55571.53;5042157;28;20025;-72
2022/09/10 02:13:05;;;;;;;5.30;3.40;;;;;;;-140.66;100.00;55571.53;5055511;28;20025;-73
2022/09/10 02:15:52;;;;;;;3.63;2.97;;;;;;;-140.66;100.00;55571.53;5056011;28;20025;-73
2022/09/10 02:18:38;;;;;;;5.53;3.67;;;;;;;-140.66;100.00;55571.53;5042630;28;20021;-73
2022/09/10 02:21:24;;;;;;;3.92;3.10;;;;;;;-140.66;100.00;55571.53;5055546;28;20376;-72
2022/09/10 02:24:12;;;;;;;4.40;3.80;;;;;;;-140.66;100.00;55571.53;5056025;28;20021;-73
2022/09/10 02:26:57;;;;;;;6.20;4.70;;;;;;;-140.66;100.00;55571.53;5042110;28;20048;-72
2022/09/10 02:29:43;;;;;;;7.43;4.60;;;;;;;-140.66;100.00;55571.53;5041479;28;20032;-73
2022/09/10 02:32:29;;;;;;;7.10;5.13;;;;;;;-140.66;100.00;55571.53;5056533;28;20354;-73
2022/09/10 02:35:15;;;;;;;6.95;5.30;;;;;;;-140.66;100.00;55571.53;5055274;28;20386;-73
2022/09/10 02:38:00;;;;;;;7.05;5.50;;;;;;;-140.66;100.00;55571.53;5041349;28;20060;-73
2022/09/10 02:40:50;;;;;;;7.15;5.22;;;;;;;-140.66;100.00;55571.53;5055848;28;20036;-73
2022/09/10 02:43:36;;;;;;;10.80;5.30;;;;;;;-140.66;100.00;55571.53;5055355;28;20117;-72
2022/09/10 02:46:22;;;;;;;8.90;5.43;;;;;;;-140.66;100.00;55571.53;5054857;28;20040;-73
2022/09/10 02:49:08;;;;;;;9.73;5.82;;;;;;;-140.66;100.00;55571.53;5054989;28;20029;-73
2022/09/10 02:51:54;;;;;;;8.77;5.35;;;;;;;-140.66;100.00;55571.53;5040994;28;20060;-72
2022/09/10 02:54:40;;;;;;;6.50;5.68;;;;;;;-140.66;100.00;55571.53;5055397;28;20017;-72
2022/09/10 02:57:26;;;;;;;11.57;7.28;;;;;;;-140.66;100.00;55571.53;5042065;28;20127;-73
2022/09/10 03:00:12;;;;;;;10.73;6.75;;;;;;;-140.66;100.00;55571.53;5040652;28;20035;-73
2022/09/10 03:02:58;;;;;;;10.63;6.47;;;;;;;-140.66;100.00;55571.53;5054840;28;20104;-73
2022/09/10 03:05:43;;;;;;;9.02;6.22;;;;;;;-140.66;100.00;55571.53;5055720;28;20033;-73
2022/09/10 03:08:30;;;;;;;13.30;7.07;;;;;;;-140.66;100.00;55571.53;5040647;28;20025;-73
2022/09/10 03:11:15;;;;;;;9.82;7.15;;;;;;;-140.66;100.00;55571.53;5055566;28;20498;-73
2022/09/10 03:14:01;;;;;;;8.95;6.60;;;;;;;-140.66;100.00;55571.53;5040483;28;20094;-72
2022/09/10 03:16:48;;;;;;;7.53;5.70;;;;;;;-140.66;100.00;55571.53;5040494;28;20029;-72
2022/09/10 03:19:34;;;;;;;7.18;6.07;;;;;;;-140.66;100.00;55571.53;5055905;28;20033;-72
2022/09/10 03:22:20;;;;;;;7.93;6.30;;;;;;;-140.66;100.00;55571.53;5055314;28;20094;-73
2022/09/10 03:25:06;;;;;;;7.32;5.20;;;;;;;-140.66;100.00;55571.53;5054300;28;20032;-73
2022/09/10 03:27:52;;;;;;;6.03;4.38;;;;;;;-140.66;100.00;55571.53;5040871;28;20400;-73
2022/09/10 03:30:39;;;;;;;5.38;3.90;;;;;;;-140.66;100.00;55571.53;5053976;28;20450;-72
2022/09/10 03:33:25;;;;;;;7.50;4.15;;;;;;;-140.66;100.00;55571.53;5054121;28;20090;-72
2022/09/10 03:36:13;;;;;;;4.57;3.90;;;;;;;-140.66;100.00;55571.53;5040360;28;20036;-73
2022/09/10 03:38:59;;;;;;;4.90;4.05;;;;;;;-140.66;100.00;55571.53;5039961;28;20024;-73
2022/09/10 03:41:45;;;;;;;4.22;3.65;;;;;;;-140.66;100.00;55571.53;5040513;28;20025;-73
2022/09/10 03:44:32;;;;;;;5.47;3.72;;;;;;;-140.66;100.00;55571.53;5053956;28;20067;-73
2022/09/10 03:47:18;;;;;;;6.43;3.92;;;;;;;-140.66;100.00;55571.53;5039944;28;20035;-73
2022/09/10 03:50:05;;;;;;;5.03;3.90;;;;;;;-140.66;100.00;55571.53;5054552;28;20041;-72
2022/09/10 03:52:51;;;;;;;4.80;4.20;;;;;;;-140.66;100.00;55571.53;5053838;28;20035;-72
2022/09/10 03:55:36;;;;;;;4.97;4.40;;;;;;;-140.66;100.00;55571.53;5053499;28;20051;-72
2022/09/10 03:58:22;;;;;;;9.23;5.03;;;;;;;-140.66;100.00;55571.53;5054766;28;20028;-72
2022/09/10 04:01:08;;;;;;;8.18;5.82;;;;;;;-140.66;100.00;55571.53;5053839;28;20025;-72
2022/09/10 04:03:55;;;;;;;8.38;5.75;;;;;;;-140.66;100.00;55571.53;5053432;28;20032;-73
2022/09/10 04:06:41;;;;;;;8.48;6.15;;;;;;;-140.66;100.00;55571.53;5053953;28;20521;-73
2022/09/10 04:09:27;;;;;;;9.70;6.07;;;;;;;-140.66;100.00;55571.53;5054537;28;20044;-72
2022/09/10 04:12:12;;;;;;;7.65;5.88;;;;;;;-140.66;100.00;55571.53;5039717;28;20115;-73
2022/09/10 04:15:00;;;;;;;7.25;5.57;;;;;;;-140.66;100.00;55571.53;5039488;28;20029;-72
2022/09/10 04:17:50;;;;;;;8.50;5.40;;;;;;;-140.66;100.00;55571.53;5040149;28;20039;-72
2022/09/10 04:20:36;;;;;;;7.07;6.00;;;;;;;-140.66;100.00;55571.53;5055105;28;20514;-73
2022/09/10 04:23:22;;;;;;;6.65;5.82;;;;;;;-140.66;100.00;55571.53;5040000;28;20057;-73
2022/09/10 04:26:17;;;;;;;7.53;6.43;;;;;;;-140.66;100.00;55571.53;5039568;28;20035;-73
2022/09/10 04:29:02;;;;;;;13.32;6.28;;;;;;;-140.66;100.00;55571.53;5053369;28;20342;-73
2022/09/10 04:31:49;;;;;;;8.50;6.60;;;;;;;-140.66;100.00;55571.53;5039809;28;20033;-72
2022/09/10 04:34:35;;;;;;;7.40;6.45;;;;;;;-140.66;100.00;55571.53;5054116;28;20017;-73
2022/09/10 04:37:21;;;;;;;7.95;6.00;;;;;;;-140.66;100.00;55571.53;5064013;28;20044;-72
2022/09/10 04:40:08;;;;;;;7.35;6.00;;;;;;;-140.66;100.00;55571.53;5067900;28;20021;-72
2022/09/10 04:42:53;;;;;;;7.68;5.75;;;;;;;-140.66;100.00;55571.53;5067037;28;20033;-72
2022/09/10 04:45:40;;;;;;;8.73;5.90;;;;;;;-140.66;100.00;55571.53;5066665;28;20036;-72
2022/09/10 04:48:25;;;;;;;7.35;5.70;;;;;;;-140.66;100.00;55571.53;5067024;28;20111;-72
2022/09/10 04:51:12;;;;;;;8.00;5.30;;;;;;;-140.66;100.00;55571.53;5061945;28;20029;-71
2022/09/10 04:53:58;;;;;;;8.55;5.70;;;;;;;-140.66;100.00;55571.53;5066126;28;20084;-72
2022/09/10 04:56:45;;;;;;;8.38;5.95;;;;;;;-140.66;100.00;55571.53;5065664;28;20138;-72
2022/09/10 04:59:31;;;;;;;9.70;6.15;;;;;;;-140.66;100.00;55571.53;5052642;28;20085;-72
2022/09/10 05:02:17;;;;;;;9.63;5.35;;;;;;;-140.66;100.00;55571.53;5062778;28;20036;-73
2022/09/10 05:05:03;;;;;;;9.02;5.90;;;;;;;-140.66;100.00;55571.53;5061482;28;20025;-73
2022/09/10 05:07:49;;;;;;;10.40;5.80;;;;;;;-140.66;100.00;55571.53;5056050;28;20029;-73
2022/09/10 05:10:35;;;;;;;7.63;4.95;;;;;;;-140.66;100.00;55571.53;5040419;28;20040;-73
2022/09/10 05:13:21;;;;;;;8.50;5.57;;;;;;;-140.66;100.00;55571.53;5042034;28;20025;-73
2022/09/10 05:16:07;;;;;;;11.00;5.43;;;;;;;-140.66;100.00;55571.53;5044551;28;20023;-72
2022/09/10 05:18:53;;;;;;;6.93;5.45;;;;;;;-140.66;100.00;55571.53;5057174;28;20115;-72
2022/09/10 05:21:38;;;;;;;8.55;5.95;;;;;;;-140.66;100.00;55571.53;5053623;28;20505;-72
2022/09/10 05:24:26;;;;;;;8.15;5.88;;;;;;;-140.66;100.00;55571.53;5054405;28;20445;-73
2022/09/10 05:27:12;;;;;;;12.30;6.63;;;;;;;-140.66;100.00;55571.53;5054616;28;20090;-73
2022/09/10 05:29:58;;;;;;;13.57;7.38;;;;;;;-140.66;100.00;55571.53;5055317;28;20056;-73
2022/09/10 05:32:43;;;;;;;12.43;6.38;;;;;;;-140.66;100.00;55571.53;5054133;28;20033;-73
2022/09/10 05:35:29;;;;;;;7.25;5.15;;;;;;;-140.66;100.00;55571.53;5053125;28;20025;-73
2022/09/10 05:38:15;;;;;;;11.88;5.60;;;;;;;-140.66;100.00;55571.53;5054445;28;20033;-73
2022/09/10 05:41:00;;;;;;;7.55;5.43;;;;;;;-140.66;100.00;55571.53;5040817;28;20047;-73
2022/09/10 05:43:47;;;;;;;8.73;5.50;;;;;;;-140.66;100.00;55571.53;5056663;28;20029;-73
2022/09/10 05:46:32;;;;;;;6.65;4.25;;;;;;;-140.66;100.00;55571.53;5056115;28;20055;-74
2022/09/10 05:49:18;;;;;;;5.70;4.50;;;;;;;-140.66;100.00;55571.53;5042324;28;20033;-73
2022/09/10 05:52:04;;;;;;;6.10;5.00;;;;;;;-140.66;100.00;55571.53;5057069;28;20510;-73
2022/09/10 05:54:50;;;;;;;7.05;5.03;;;;;;;-140.66;100.00;55571.53;5057139;28;20028;-77
2022/09/10 05:57:35;;;;;;;10.00;4.78;;;;;;;-140.66;100.00;55571.53;5056411;28;20373;-74
2022/09/10 06:00:23;;;;;;;8.63;4.93;;;;;;;-140.66;100.00;55571.53;5057158;28;20056;-74
2022/09/10 06:03:09;;;;;;;6.15;4.32;;;;;;;-140.66;100.00;55571.53;5056085;28;20067;-73
2022/09/10 06:05:55;;;;;;;5.25;4.05;;;;;;;-140.66;100.00;55571.53;5055764;28;20021;-73
2022/09/10 06:08:41;;;;;;;6.88;4.00;;;;;;;-140.66;100.00;55571.53;5055686;28;20418;-73
2022/09/10 06:11:26;;;;;;;7.13;4.63;;;;;;;-140.66;100.00;55571.53;5056009;28;20021;-73
2022/09/10 06:14:13;;;;;;;6.88;4.43;;;;;;;-140.66;100.00;55571.53;5041792;28;20020;-73
2022/09/10 06:16:59;;;;;;;9.80;4.70;;;;;;;-140.66;100.00;55571.53;5055727;28;20024;-73
2022/09/10 06:19:45;;;;;;;13.18;4.20;;;;;;;-140.66;100.00;55571.53;5056603;28;20032;-74
2022/09/10 06:22:32;;;;;;;7.93;4.60;;;;;;;-140.66;100.00;55571.53;5041674;28;20068;-73
2022/09/10 06:25:18;;;;;;;10.05;4.97;;;;;;;-140.66;100.00;55571.53;5041471;28;20346;-73
2022/09/10 06:28:04;;;;;;;8.40;4.97;;;;;;;-140.66;100.00;55571.53;5055579;28;20373;-74
2022/09/10 06:30:49;;;;;;;9.88;4.55;;;;;;;-140.66;100.00;55571.53;5041360;28;20029;-74
2022/09/10 06:33:35;;;;;;;7.50;4.82;;;;;;;-140.66;100.00;55571.53;5055449;28;20025;-73
2022/09/10 06:36:21;;;;;;;9.98;4.80;;;;;;;-140.66;100.00;55571.53;5042588;28;20028;-72
2022/09/10 06:39:07;;;;;;;12.98;5.63;;;;;;;-140.66;100.00;55571.53;5056010;28;20054;-74
2022/09/10 06:41:52;;;;;;;10.43;5.20;;;;;;;-140.66;100.00;55571.53;5055627;28;20060;-73
2022/09/10 06:44:38;;;;;;;8.63;4.95;;;;;;;-140.66;100.00;55571.53;5055496;28;20025;-73
2022/09/10 06:47:24;;;;;;;9.15;5.07;;;;;;;-140.66;100.00;55571.53;5056206;28;20057;-73
2022/09/10 06:50:10;;;;;;;9.27;5.07;;;;;;;-140.66;100.00;55571.53;5055547;28;20035;-73
2022/09/10 06:52:56;;;;;;;12.23;5.40;;;;;;;-140.66;100.00;55571.53;5054648;28;20033;-74
2022/09/10 06:55:42;;;;;;;6.55;4.72;;;;;;;-140.66;100.00;55571.53;5055978;28;20120;-74
2022/09/10 06:58:31;;;;;;;7.32;4.63;;;;;;;-140.66;100.00;55571.53;5041488;28;20033;-74
2022/09/10 07:01:20;;;;;;;11.30;4.60;;;;;;;-140.66;100.00;55571.53;5054857;28;20108;-73
2022/09/10 07:04:07;;;;;;;7.65;4.55;;;;;;;-140.66;100.00;55571.53;5040927;28;20029;-73
2022/09/10 07:06:54;;;;;;;5.95;4.35;;;;;;;-140.66;100.00;55571.53;5041133;28;20028;-73
2022/09/10 07:09:42;;;;;;;6.90;4.68;;;;;;;-140.66;100.00;55571.53;5043503;28;20171;-73
2022/09/10 07:12:27;;;;;;;9.50;5.03;;;;;;;-140.66;100.00;55571.53;5054717;28;20033;-73
2022/09/10 07:15:13;;;;;;;7.65;4.65;;;;;;;-140.66;100.00;55571.53;5055843;28;20071;-73
2022/09/10 07:17:59;;;;;;;9.95;4.68;;;;;;;-140.66;100.00;55571.53;5041314;28;20036;-72
2022/09/10 07:20:45;;;;;;;13.27;5.60;;;;;;;-140.66;100.00;55571.53;5042413;28;20028;-73
2022/09/10 07:23:31;;;;;;;12.05;5.93;;;;;;;-140.66;100.00;55571.53;5040749;28;20021;-73
2022/09/10 07:26:21;;;;;;;16.88;6.15;;;;;;;-140.66;100.00;55571.53;5040911;28;20040;-73
2022/09/10 07:29:06;;;;;;;11.07;4.95;;;;;;;-140.66;100.00;55571.53;5054097;28;20020;-73
2022/09/10 07:31:52;;;;;;;7.93;5.03;;;;;;;-140.66;100.00;55571.53;5055372;28;20453;-73
2022/09/10 07:34:38;;;;;;;9.43;5.57;;;;;;;-140.66;100.00;55571.53;5054495;28;20021;-74
2022/09/10 07:37:24;;;;;;;6.40;4.93;;;;;;;-140.66;100.00;55571.53;5054468;28;20029;-73
2022/09/10 07:40:10;;;;;;;10.90;5.40;;;;;;;-140.66;100.00;55571.53;5054345;28;20029;-73
2022/09/10 07:42:57;;;;;;;9.50;5.40;;;;;;;-140.66;100.00;55571.53;5040075;28;20025;-73
2022/09/10 07:45:43;;;;;;;7.03;5.85;;;;;;;-140.66;100.00;55571.53;5054388;28;20033;-73
2022/09/10 07:48:29;;;;;;;7.30;4.88;;;;;;;-140.66;100.00;55571.53;5055459;28;20036;-73
2022/09/10 07:51:17;;;;;;;9.40;5.13;;;;;;;-140.66;100.00;55571.53;5054201;28;20039;-73
2022/09/10 07:54:04;;;;;;;12.32;4.70;;;;;;;-140.66;100.00;55571.53;5040125;28;20028;-73
2022/09/10 07:56:49;;;;;;;6.07;4.70;;;;;;;-140.66;100.00;55571.53;5053612;28;20055;-73
2022/09/10 07:59:35;;;;;;;6.22;4.25;;;;;;;-140.66;100.00;55571.53;5041122;28;20029;-73
2022/09/10 08:02:24;;;;;;;8.23;4.60;;;;;;;-140.66;100.00;55571.53;5053968;28;20025;-73
2022/09/10 08:05:10;;;;;;;11.13;5.47;;;;;;;-140.66;100.00;55571.53;5052729;28;20029;-73
2022/09/10 08:07:57;;;;;;;9.63;5.25;;;;;;;-140.66;100.00;55571.53;5041202;28;20052;-72
2022/09/10 08:10:43;;;;;;;9.27;5.30;;;;;;;-140.66;100.00;55571.53;5054178;28;20155;-73
2022/09/10 08:13:28;;;;;;;14.50;5.25;;;;;;;-140.66;100.00;55571.53;5055392;28;20024;-73
2022/09/10 08:16:20;;;;;;;11.70;8.90;;;;;;;-140.66;100.00;55571.53;5053751;28;20055;-73
2022/09/10 08:19:08;;;;;;;6.82;4.82;;;;;;;-140.66;100.00;55571.53;5054238;28;20033;-73
2022/09/10 08:21:55;;;;;;;10.38;4.40;;;;;;;-140.66;100.00;55571.53;5057017;28;20024;-74
2022/09/10 08:24:41;;;;;;;5.78;4.57;;;;;;;-140.66;100.00;55571.53;5053859;28;20033;-73
2022/09/10 08:27:27;;;;;;;7.95;5.88;;;;;;;-140.66;100.00;55571.53;5053699;28;20033;-74
2022/09/10 08:30:13;;;;;;;5.85;4.72;;;;;;;-140.66;100.00;55571.53;5053795;28;20514;-73
2022/09/10 08:32:59;;;;;;;6.10;4.65;;;;;;;-140.66;100.00;55571.53;5039360;28;20029;-73
2022/09/10 08:35:45;;;;;;;6.90;4.80;;;;;;;-140.66;100.00;55571.53;5039658;28;20025;-72
2022/09/10 08:38:38;;;;;;;5.15;4.50;;;;;;;-140.66;100.00;55571.53;5039850;28;20032;-73
2022/09/10 08:41:37;;;;;;;6.20;5.07;;;;;;;-140.66;100.00;55571.53;5039520;28;20446;-73
2022/09/10 08:44:40;;;;;;;8.52;5.63;;;;;;;-140.66;100.00;55571.53;5053247;28;20454;-73
2022/09/10 08:47:38;;;;;;;6.45;4.38;;;;;;;-140.66;100.00;55571.53;5053560;28;20116;-73
2022/09/10 08:50:40;;;;;;;6.80;4.72;;;;;;;-140.66;100.00;55571.53;5053375;28;20029;-73
2022/09/10 08:53:35;;;;;;;7.88;5.07;;;;;;;-140.66;100.00;55571.53;5053324;28;20060;-73
2022/09/10 08:56:22;;;;;;;7.80;5.45;;;;;;;-140.66;100.00;55571.53;5053161;28;20346;-73
2022/09/10 08:59:22;;;;;;;6.80;4.90;;;;;;;-140.66;100.00;55571.53;5039452;28;20037;-73
2022/09/10 09:02:25;;;;;;;6.70;5.25;;;;;;;-140.66;100.00;55571.53;5054551;28;20369;-73
2022/09/10 09:05:16;;;;;;;7.15;5.20;;;;;;;-140.66;100.00;55571.53;5053102;28;20071;-73
2022/09/10 09:08:03;;;;;;;6.43;5.07;;;;;;;-140.66;100.00;55571.53;5053477;28;20052;-73
2022/09/10 09:10:51;;;;;;;10.10;6.22;;;;;;;-140.66;100.00;55571.53;5053766;28;20112;-73
2022/09/10 09:13:40;;;;;;;6.20;5.53;;;;;;;-140.66;100.00;55571.53;5039693;28;20020;-72
2022/09/10 09:16:53;;;;;;;7.50;5.50;;;;;;;-140.66;100.00;55571.53;5056092;28;20416;-73
2022/09/10 09:19:57;;;;;;;7.38;5.75;;;;;;;-140.66;100.00;55571.53;5057462;28;20364;-73
2022/09/10 09:22:52;;;;;;;6.88;5.30;;;;;;;-140.66;100.00;55571.53;5056641;28;20051;-73
2022/09/10 09:26:08;;;;;;;12.75;5.45;;;;;;;-140.66;100.00;55571.53;5056575;28;20115;-74
2022/09/10 09:29:12;;;;;;;8.57;5.70;;;;;;;-140.66;100.00;55571.53;5057978;28;20057;-73
2022/09/10 09:32:02;;;;;;;11.10;5.80;;;;;;;-140.66;100.00;55571.53;5057258;28;20025;-74
2022/09/10 09:35:21;;;;;;;8.73;5.60;;;;;;;-140.66;100.00;55571.53;5056706;28;20163;-73
2022/09/10 09:38:07;;;;;;;8.48;5.80;;;;;;;-140.66;100.00;55571.53;5043306;28;20037;-73
2022/09/10 09:40:56;;;;;;;7.88;5.60;;;;;;;-140.66;100.00;55571.53;5056417;28;20131;-73
2022/09/10 09:44:42;;;;;;;8.65;5.63;;;;;;;-140.66;100.00;55571.53;5042258;28;20040;-73
2022/09/10 09:47:27;;;;;;;8.68;5.80;;;;;;;-140.66;100.00;55571.53;4971191;28;20059;-74
2022/09/10 09:50:14;;;;;;;9.10;5.60;;;;;;;-140.66;100.00;55571.53;5042964;28;20492;-74
2022/09/10 09:53:00;;;;;;;8.50;5.60;;;;;;;-140.66;100.00;55571.53;5057928;28;20109;-74
2022/09/10 09:55:50;;;;;;;11.90;6.93;;;;;;;-140.66;100.00;55571.53;5056558;28;20080;-73
2022/09/10 09:58:38;;;;;;;15.52;7.43;;;;;;;-140.66;100.00;55571.53;5057197;28;20100;-73
2022/09/10 10:01:25;;;;;;;10.55;5.45;;;;;;;-140.66;100.00;55571.53;5042397;28;20151;-72
2022/09/10 10:04:21;;;;;;;10.82;6.00;;;;;;;-140.66;100.00;55571.53;5056444;28;20028;-74
2022/09/10 10:07:07;;;;;;;7.20;5.53;;;;;;;-140.66;100.00;55571.53;5056939;28;20029;-73
2022/09/10 10:09:53;;;;;;;11.13;5.90;;;;;;;-140.66;100.00;55571.53;5041973;28;20028;-73
2022/09/10 10:12:48;;;;;;;12.07;6.40;;;;;;;-140.66;100.00;55571.53;5056254;28;20056;-73
2022/09/10 10:15:37;;;;;;;9.70;6.15;;;;;;;-140.66;100.00;55571.53;5056270;28;20047;-73
2022/09/10 10:18:31;;;;;;;9.15;6.88;;;;;;;-140.66;100.00;55571.53;5056242;28;20187;-73
2022/09/10 10:21:21;;;;;;;11.80;6.40;;;;;;;-140.66;100.00;55571.53;5055965;28;20025;-73
2022/09/10 10:24:31;;;;;;;10.02;5.97;;;;;;;-140.66;100.00;55571.53;5055898;28;20036;-73
2022/09/10 10:27:40;;;;;;;11.45;6.28;;;;;;;-140.66;100.00;55571.53;5054755;28;20028;-74
2022/09/10 10:30:28;;;;;;;8.77;6.50;;;;;;;-140.66;100.00;55571.53;5043092;28;20111;-73
2022/09/10 10:33:18;;;;;;;7.30;6.38;;;;;;;-140.66;100.00;55571.53;5055919;28;20024;-73
2022/09/10 10:36:20;;;;;;;8.95;6.18;;;;;;;-140.66;100.00;55571.53;5041972;28;20079;-73
2022/09/10 10:39:47;;;;;;;7.78;6.70;;;;;;;-140.66;100.00;55571.53;5056151;28;20040;-74
2022/09/10 10:42:45;;;;;;;7.80;6.70;;;;;;;-140.66;100.00;55571.53;5041469;28;20033;-72
2022/09/10 10:45:43;;;;;;;9.32;7.22;;;;;;;-140.66;100.00;55571.53;5055536;28;20021;-72
2022/09/10 10:48:42;;;;;;;9.98;7.15;;;;;;;-140.66;100.00;55571.53;5055470;28;20036;-72
2022/09/10 10:51:40;;;;;;;13.23;7.38;;;;;;;-140.66;100.00;55571.53;5055564;28;20025;-73
2022/09/10 10:55:10;;;;;;;12.00;7.35;;;;;;;-140.66;100.00;55571.53;5041607;28;20032;-73
2022/09/10 10:58:23;;;;;;;11.77;8.50;;;;;;;-140.66;100.00;55571.53;4957803;28;20082;-72
2022/09/10 11:01:32;;;;;;;9.57;8.13;;;;;;;-140.66;100.00;55571.53;5056027;28;20029;-72
2022/09/10 11:04:42;;;;;;;11.02;7.82;;;;;;;-140.66;100.00;55571.53;5041267;28;20422;-73
2022/09/10 11:07:40;;;;;;;11.70;8.20;;;;;;;-140.66;100.00;55571.53;5055148;28;20116;-72
2022/09/10 11:10:44;;;;;;;9.32;7.53;;;;;;;-140.66;100.00;55571.53;5056393;28;20033;-73
2022/09/10 11:13:37;;;;;;;9.50;7.63;;;;;;;-140.66;100.00;55571.53;5055488;28;20124;-72
2022/09/10 11:16:45;;;;;;;12.10;8.13;;;;;;;-140.66;100.00;55571.53;5054910;28;20039;-72
2022/09/10 11:19:41;;;;;;;16.58;8.15;;;;;;;-140.66;100.00;55571.53;5055002;28;20472;-72
2022/09/10 11:22:34;;;;;;;9.77;7.55;;;;;;;-140.66;100.00;55571.53;5055614;28;20112;-72
2022/09/10 11:25:43;;;;;;;13.80;8.13;;;;;;;-140.66;100.00;55571.53;5055619;28;20024;-73
2022/09/10 11:28:36;;;;;;;10.18;7.90;;;;;;;-140.66;100.00;55571.53;5054637;28;20021;-72
2022/09/10 11:32:05;;;;;;;11.73;8.43;;;;;;;-140.66;100.00;55571.53;5054806;28;20346;-73
2022/09/10 11:35:02;;;;;;;13.70;8.93;;;;;;;-140.66;100.00;55571.53;4956691;28;20024;-73
2022/09/10 11:38:23;;;;;;;17.20;7.95;;;;;;;-140.66;100.00;55571.53;5055051;28;20117;-73
2022/09/10 11:41:18;;;;;;;10.77;7.80;;;;;;;-140.66;100.00;55571.53;5054595;28;20021;-73
2022/09/10 11:44:16;;;;;;;15.95;8.57;;;;;;;-140.66;100.00;55571.53;5054687;28;20111;-72
2022/09/10 11:47:14;;;;;;;14.50;8.15;;;;;;;-140.66;100.00;55571.53;5040375;28;20029;-73
2022/09/10 11:50:09;;;;;;;17.23;8.20;;;;;;;-140.66;100.00;55571.53;5054954;28;20056;-73
2022/09/10 11:52:57;;;;;;;13.40;7.90;;;;;;;-140.66;100.00;55571.53;5054803;28;20020;-73
2022/09/10 11:56:09;;;;;;;12.52;8.38;;;;;;;-140.66;100.00;55571.53;5053948;28;20119;-73
2022/09/10 11:58:54;;;;;;;13.40;7.95;;;;;;;-140.66;100.00;55571.53;5040491;28;20021;-72
2022/09/10 12:02:01;;;;;;;18.73;8.48;;;;;;;-140.66;100.00;55571.53;5054076;28;20365;-72
2022/09/10 12:05:24;;;;;;;14.65;9.35;;;;;;;-140.66;100.00;55571.53;5053864;28;20037;-73
2022/09/10 12:08:23;;;;;;;14.07;8.40;;;;;;;-140.66;100.00;55571.53;5054323;28;20025;-72
2022/09/10 12:11:23;;;;;;;15.88;8.55;;;;;;;-140.66;100.00;55571.53;5053869;28;20020;-72
2022/09/10 12:14:15;;;;;;;16.25;8.27;;;;;;;-140.66;100.00;55571.53;5053663;28;20458;-72
2022/09/10 12:17:08;;;;;;;14.52;8.35;;;;;;;-140.66;100.00;55571.53;5040295;28;20044;-73
2022/09/10 12:19:58;;;;;;;14.48;8.32;;;;;;;-140.66;100.00;55571.53;5054143;28;20350;-72
2022/09/10 12:22:46;;;;;;;14.57;8.57;;;;;;;-140.66;100.00;55571.53;5054051;28;20360;-72
2022/09/10 12:25:32;;;;;;;13.00;7.57;;;;;;;-140.66;100.00;55571.53;5053582;28;20033;-72
2022/09/10 12:28:52;;;;;;;14.73;7.55;;;;;;;-140.66;100.00;55571.53;5054105;28;20025;-72
2022/09/10 12:32:15;;;;;;;12.82;7.82;;;;;;;-140.66;100.00;55571.53;5055194;28;20031;-71
2022/09/10 12:35:29;;;;;;;17.08;7.72;;;;;;;-140.66;100.00;55571.53;5054905;28;20362;-72
2022/09/10 12:38:52;;;;;;;16.80;7.80;;;;;;;-140.66;100.00;55571.53;5053762;28;20039;-72
2022/09/10 12:41:38;;;;;;;10.82;7.68;;;;;;;-140.66;100.00;55571.53;5039499;28;20179;-72
2022/09/10 12:44:36;;;;;;;15.40;7.60;;;;;;;-140.66;100.00;55571.53;5053426;28;20071;-72
2022/09/10 12:47:41;;;;;;;14.63;7.80;;;;;;;-140.66;100.00;55571.53;5053559;28;20029;-72
2022/09/10 12:50:31;;;;;;;11.50;7.68;;;;;;;-140.66;100.00;55571.53;5054890;28;20040;-73
2022/09/10 12:53:41;;;;;;;14.70;7.82;;;;;;;-140.66;100.00;55571.53;5043601;28;20575;-73
2022/09/10 12:56:39;;;;;;;12.77;7.45;;;;;;;-140.66;100.00;55571.53;5057693;28;20044;-73